Time;durP1;ratioP1;P1;durP2;ratioP2;P2;SDS_P1;SDS_P2;PMS_P1;PMS_P2;Temp;Humidity;BMP_temperature;BMP_pressure;BME280_temperature;BME280_humidity;BME280_pressure;Samples;Min_cycle;Max_cycle;Signal;HPM_P1;HPM_P2
2023/08/14 00:01:38;;;;;;;7.85;2.70;;;;;;;;;;6259572;28;20122;-77
2023/08/14 00:04:40;;;;;;;7.10;2.85;;;;;;;;;;6259040;28;20049;-76
2023/08/14 00:07:41;;;;;;;4.57;2.80;;;;;;;;;;6261604;28;20526;-77
2023/08/14 00:10:43;;;;;;;6.18;2.80;;;;;;;;;;6257301;28;20079;-78
2023/08/14 00:13:55;;;;;;;4.85;2.80;;;;;;;;;;6254869;28;20079;-79
2023/08/14 00:16:57;;;;;;;5.57;2.80;;;;;;;;;;6257068;28;20067;-77
2023/08/14 00:19:59;;;;;;;6.93;3.22;;;;;;;;;;6260017;28;20045;-78
2023/08/14 00:23:00;;;;;;;4.00;2.72;;;;;;;;;;6260881;28;20049;-78
2023/08/14 00:26:04;;;;;;;9.45;2.90;;;;;;;;;;6263887;28;20049;-77
2023/08/14 00:29:06;;;;;;;4.55;2.53;;;;;;;;;;6282688;28;20102;-75
2023/08/14 00:32:07;;;;;;;6.90;3.10;;;;;;;;;;6273209;28;20041;-78
2023/08/14 00:35:09;;;;;;;6.90;2.92;;;;;;;;;;6283742;28;20495;-78
2023/08/14 00:38:11;;;;;;;5.50;3.00;;;;;;;;;;6259628;28;20044;-77
2023/08/14 00:41:13;;;;;;;7.07;2.78;;;;;;;;;;6277326;28;20049;-79
2023/08/14 00:44:15;;;;;;;6.32;2.65;;;;;;;;;;6291841;28;20406;-79
2023/08/14 00:47:16;;;;;;;5.38;2.80;;;;;;;;;;6264523;28;20361;-78
2023/08/14 00:50:18;;;;;;;5.35;3.10;;;;;;;;;;6291901;28;20041;-78
2023/08/14 00:53:22;;;;;;;3.87;2.60;;;;;;;;;;6256222;28;20123;-78
2023/08/14 00:56:24;;;;;;;7.70;3.00;;;;;;;;;;6265208;28;20136;-77
2023/08/14 00:59:26;;;;;;;5.18;2.67;;;;;;;;;;6266132;28;20051;-78
2023/08/14 01:02:28;;;;;;;4.78;2.88;;;;;;;;;;6295519;28;20037;-78
2023/08/14 01:05:31;;;;;;;5.93;2.85;;;;;;;;;;6262894;28;20045;-78
2023/08/14 01:08:33;;;;;;;;;;;;;;;;;;6274056;28;20044;-76
2023/08/14 01:11:45;;;;;;;7.10;2.80;;;;;;;;;;6279491;28;19933;-76
2023/08/14 01:14:54;;;;;;;4.90;2.75;;;;;;;;;;6279950;28;20080;-76
2023/08/14 01:18:00;;;;;;;6.05;2.53;;;;;;;;;;6267806;28;20704;-78
2023/08/14 01:21:17;;;;;;;4.25;2.80;;;;;;;;;;6279030;28;20122;-75
2023/08/14 01:24:32;;;;;;;6.05;2.42;;;;;;;;;;6280099;28;20068;-79
2023/08/14 01:27:34;;;;;;;7.20;2.72;;;;;;;;;;6261964;28;20045;-77
2023/08/14 01:30:36;;;;;;;3.92;2.50;;;;;;;;;;6265800;28;20094;-76
2023/08/14 01:33:38;;;;;;;3.87;2.50;;;;;;;;;;6264600;28;20037;-78
2023/08/14 01:36:50;;;;;;;8.13;2.70;;;;;;;;;;6244659;28;20051;-78
2023/08/14 01:40:02;;;;;;;3.97;2.33;;;;;;;;;;6263786;28;20049;-79
2023/08/14 01:43:08;;;;;;;6.65;2.75;;;;;;;;;;6252307;28;20447;-78
2023/08/14 01:46:11;;;;;;;3.33;2.53;;;;;;;;;;6274929;28;20043;-77
2023/08/14 01:49:16;;;;;;;4.20;2.75;;;;;;;;;;6268860;28;20075;-79
2023/08/14 01:52:18;;;;;;;7.53;2.80;;;;;;;;;;6287710;28;20045;-79
2023/08/14 01:55:25;;;;;;;6.82;2.92;;;;;;;;;;6272211;28;20581;-77
2023/08/14 01:58:26;;;;;;;3.70;2.67;;;;;;;;;;6287812;28;20047;-79
2023/08/14 02:01:28;;;;;;;7.35;2.80;;;;;;;;;;6268265;28;20044;-78
2023/08/14 02:04:32;;;;;;;3.70;2.58;;;;;;;;;;6257951;28;20056;-79
2023/08/14 02:07:33;;;;;;;5.38;2.55;;;;;;;;;;6302554;28;20045;-78
2023/08/14 02:10:35;;;;;;;7.63;2.90;;;;;;;;;;6295921;28;20044;-79
2023/08/14 02:13:36;;;;;;;6.05;2.75;;;;;;;;;;6278520;28;20040;-79
2023/08/14 02:16:38;;;;;;;5.82;2.40;;;;;;;;;;6301539;28;20410;-78
2023/08/14 02:19:40;;;;;;;5.47;2.72;;;;;;;;;;6288892;28;20060;-77
2023/08/14 02:22:41;;;;;;;5.60;2.55;;;;;;;;;;6286901;28;20089;-79
2023/08/14 02:25:43;;;;;;;5.97;2.72;;;;;;;;;;6272195;28;20047;-78
2023/08/14 02:28:45;;;;;;;11.27;2.83;;;;;;;;;;6286667;28;20403;-78
2023/08/14 02:31:50;;;;;;;4.55;2.63;;;;;;;;;;6287962;28;20045;-78
2023/08/14 02:34:56;;;;;;;4.10;2.70;;;;;;;;;;6275723;28;20041;-79
2023/08/14 02:37:57;;;;;;;5.75;3.00;;;;;;;;;;6282113;28;20498;-78
2023/08/14 02:41:02;;;;;;;7.68;2.80;;;;;;;;;;6263113;28;20064;-76
2023/08/14 02:44:04;;;;;;;6.47;3.75;;;;;;;;;;6244959;28;20090;-78
2023/08/14 02:47:06;;;;;;;7.70;3.10;;;;;;;;;;6261850;28;20124;-76
2023/08/14 02:50:07;;;;;;;7.05;2.72;;;;;;;;;;6261451;28;20483;-76
2023/08/14 02:53:09;;;;;;;4.37;2.47;;;;;;;;;;6281311;28;20044;-77
2023/08/14 02:56:11;;;;;;;6.10;2.33;;;;;;;;;;6253301;28;20037;-79
2023/08/14 02:59:13;;;;;;;5.65;3.10;;;;;;;;;;6285846;28;20071;-77
2023/08/14 03:02:15;;;;;;;3.78;2.70;;;;;;;;;;6299344;28;20048;-79
2023/08/14 03:05:17;;;;;;;4.40;2.80;;;;;;;;;;6299057;28;20506;-78
2023/08/14 03:08:19;;;;;;;7.68;2.90;;;;;;;;;;6295247;28;20045;-79
2023/08/14 03:11:20;;;;;;;4.68;2.95;;;;;;;;;;6282614;28;20041;-76
2023/08/14 03:14:22;;;;;;;6.85;2.65;;;;;;;;;;6270296;28;20048;-79
2023/08/14 03:17:24;;;;;;;5.80;2.88;;;;;;;;;;6301141;28;20124;-78
2023/08/14 03:20:26;;;;;;;6.95;2.72;;;;;;;;;;6268676;28;20032;-79
2023/08/14 03:23:27;;;;;;;4.53;2.85;;;;;;;;;;6251289;28;20049;-76
2023/08/14 03:26:29;;;;;;;4.60;2.88;;;;;;;;;;6268709;28;20052;-78
2023/08/14 03:29:31;;;;;;;5.07;2.92;;;;;;;;;;6285303;28;20145;-80
2023/08/14 03:32:33;;;;;;;6.43;3.20;;;;;;;;;;6283405;28;20049;-78
2023/08/14 03:35:37;;;;;;;5.15;3.15;;;;;;;;;;6293446;28;20048;-75
2023/08/14 03:38:39;;;;;;;3.20;2.72;;;;;;;;;;6276414;28;20044;-76
2023/08/14 03:41:43;;;;;;;4.70;3.10;;;;;;;;;;6254927;28;20052;-75
2023/08/14 03:44:45;;;;;;;11.80;3.10;;;;;;;;;;6255368;28;20053;-77
2023/08/14 03:47:49;;;;;;;5.45;3.00;;;;;;;;;;6255661;28;20056;-77
2023/08/14 03:50:51;;;;;;;8.50;3.10;;;;;;;;;;6262525;28;20048;-76
2023/08/14 03:53:53;;;;;;;4.47;2.78;;;;;;;;;;6275913;28;20061;-77
2023/08/14 03:56:54;;;;;;;5.25;2.67;;;;;;;;;;6264452;28;20041;-75
2023/08/14 03:59:57;;;;;;;5.20;2.57;;;;;;;;;;6266462;28;20048;-76
2023/08/14 04:02:58;;;;;;;5.82;2.72;;;;;;;;;;6268276;28;20041;-77
2023/08/14 04:06:01;;;;;;;;;;;;;;;;;;6291327;28;20170;-77
2023/08/14 04:09:05;;;;;;;8.00;3.58;;;;;;;;;;6293416;28;19925;-77
2023/08/14 04:12:07;;;;;;;6.80;3.88;;;;;;;;;;6276551;28;20037;-78
2023/08/14 04:15:16;;;;;;;4.57;2.95;;;;;;;;;;6264729;28;20048;-77
2023/08/14 04:18:18;;;;;;;7.82;2.80;;;;;;;;;;6280583;28;20066;-78
2023/08/14 04:21:20;;;;;;;6.30;3.25;;;;;;;;;;6276866;28;20037;-76
2023/08/14 04:24:21;;;;;;;14.32;4.00;;;;;;;;;;6242830;28;20383;-77
2023/08/14 04:27:23;;;;;;;6.35;3.13;;;;;;;;;;6254486;28;20491;-77
2023/08/14 04:30:25;;;;;;;8.23;4.07;;;;;;;;;;6260630;28;20041;-78
2023/08/14 04:33:27;;;;;;;10.07;4.13;;;;;;;;;;6255431;28;20056;-78
2023/08/14 04:36:31;;;;;;;7.23;4.20;;;;;;;;;;6258211;28;20503;-77
2023/08/14 04:39:33;;;;;;;9.68;3.88;;;;;;;;;;6256604;28;20052;-78
2023/08/14 04:42:35;;;;;;;12.57;5.03;;;;;;;;;;6255611;28;20503;-78
2023/08/14 04:45:40;;;;;;;16.88;4.63;;;;;;;;;;6256509;28;20045;-76
2023/08/14 04:48:42;;;;;;;12.05;4.90;;;;;;;;;;6290864;28;20069;-78
2023/08/14 04:51:44;;;;;;;11.50;4.43;;;;;;;;;;6253561;28;20072;-78
2023/08/14 04:54:46;;;;;;;10.32;4.35;;;;;;;;;;6255068;28;20569;-77
2023/08/14 04:57:47;;;;;;;14.77;4.65;;;;;;;;;;6255370;28;20049;-77
2023/08/14 05:00:49;;;;;;;10.25;4.32;;;;;;;;;;6258814;28;20049;-78
2023/08/14 05:03:51;;;;;;;9.02;4.38;;;;;;;;;;6257119;28;20886;-78
2023/08/14 05:06:54;;;;;;;12.98;4.50;;;;;;;;;;6242982;28;20044;-78
2023/08/14 05:09:56;;;;;;;9.80;3.97;;;;;;;;;;6269658;28;20072;-78
2023/08/14 05:12:57;;;;;;;10.18;3.80;;;;;;;;;;6301957;28;20047;-79
2023/08/14 05:16:00;;;;;;;10.65;4.10;;;;;;;;;;6270745;28;20040;-78
2023/08/14 05:19:11;;;;;;;7.38;3.75;;;;;;;;;;6254734;28;20119;-78
2023/08/14 05:22:12;;;;;;;8.75;4.30;;;;;;;;;;6247579;28;20041;-79
2023/08/14 05:25:14;;;;;;;9.68;4.28;;;;;;;;;;6271836;28;20087;-77
2023/08/14 05:28:16;;;;;;;9.10;3.80;;;;;;;;;;6266293;28;20052;-76
2023/08/14 05:31:17;;;;;;;5.75;3.90;;;;;;;;;;6264323;28;20068;-78
2023/08/14 05:34:19;;;;;;;6.35;3.88;;;;;;;;;;6264314;28;20087;-76
2023/08/14 05:37:21;;;;;;;6.90;3.55;;;;;;;;;;6263850;28;20045;-78
2023/08/14 05:40:23;;;;;;;6.88;3.40;;;;;;;;;;6276469;28;20056;-79
2023/08/14 05:43:25;;;;;;;5.43;2.90;;;;;;;;;;6261877;28;20066;-78
2023/08/14 05:46:27;;;;;;;5.68;3.05;;;;;;;;;;6279945;28;20045;-78
2023/08/14 05:49:28;;;;;;;5.90;3.65;;;;;;;;;;6294097;28;20098;-78
2023/08/14 05:52:30;;;;;;;5.60;2.88;;;;;;;;;;6257956;28;20144;-76
2023/08/14 05:55:32;;;;;;;4.00;3.20;;;;;;;;;;6261128;28;20107;-79
2023/08/14 05:58:34;;;;;;;5.60;3.50;;;;;;;;;;6262661;28;20404;-78
2023/08/14 06:01:36;;;;;;;5.65;3.15;;;;;;;;;;6258755;28;20049;-78
2023/08/14 06:04:37;;;;;;;3.92;3.00;;;;;;;;;;6279050;28;20985;-78
2023/08/14 06:07:39;;;;;;;5.97;3.50;;;;;;;;;;6282836;28;20055;-78
2023/08/14 06:10:41;;;;;;;4.43;3.05;;;;;;;;;;6282246;28;20170;-77
2023/08/14 06:13:43;;;;;;;8.10;3.47;;;;;;;;;;6275150;28;20102;-79
2023/08/14 06:16:44;;;;;;;5.13;3.43;;;;;;;;;;6301430;28;20044;-79
2023/08/14 06:19:46;;;;;;;4.95;3.03;;;;;;;;;;6281889;28;20043;-80
2023/08/14 06:22:48;;;;;;;7.32;3.00;;;;;;;;;;6301792;28;20116;-79
2023/08/14 06:25:50;;;;;;;5.70;3.05;;;;;;;;;;6245297;28;20477;-77
2023/08/14 06:28:51;;;;;;;5.68;2.75;;;;;;;;;;6258977;28;20111;-79
2023/08/14 06:31:54;;;;;;;8.85;3.38;;;;;;;;;;6261742;28;20041;-78
2023/08/14 06:34:56;;;;;;;6.78;3.17;;;;;;;;;;6258264;28;20109;-79
2023/08/14 06:37:57;;;;;;;10.95;2.70;;;;;;;;;;6240562;28;20048;-79
2023/08/14 06:40:59;;;;;;;5.88;3.08;;;;;;;;;;6255686;28;20073;-78
2023/08/14 06:44:01;;;;;;;10.32;3.30;;;;;;;;;;6256814;28;20423;-78
2023/08/14 06:47:02;;;;;;;12.10;3.15;;;;;;;;;;6257853;28;20171;-79
2023/08/14 06:50:04;;;;;;;12.45;3.45;;;;;;;;;;6254824;28;20132;-78
2023/08/14 06:53:06;;;;;;;5.85;2.95;;;;;;;;;;6240426;28;20051;-79
2023/08/14 06:56:08;;;;;;;9.57;3.45;;;;;;;;;;6245996;28;20064;-78
2023/08/14 06:59:10;;;;;;;7.65;3.55;;;;;;;;;;6255915;28;20442;-78
2023/08/14 07:02:12;;;;;;;6.53;3.10;;;;;;;;;;6250959;28;20044;-78
2023/08/14 07:05:13;;;;;;;5.90;3.10;;;;;;;;;;6257667;28;20125;-76
2023/08/14 07:08:15;;;;;;;5.72;3.22;;;;;;;;;;6256911;28;20048;-78
2023/08/14 07:11:17;;;;;;;8.80;3.20;;;;;;;;;;6255779;28;20048;-78
2023/08/14 07:14:18;;;;;;;6.07;3.20;;;;;;;;;;6254728;28;20538;-78
2023/08/14 07:17:20;;;;;;;4.68;3.03;;;;;;;;;;6244494;28;20136;-78
2023/08/14 07:20:21;;;;;;;5.18;3.03;;;;;;;;;;6260686;28;20498;-78
2023/08/14 07:23:26;;;;;;;8.68;2.97;;;;;;;;;;6252096;28;20071;-76
2023/08/14 07:26:29;;;;;;;;;;;;;;;;;;6256379;28;20514;-78
2023/08/14 07:29:31;;;;;;;6.22;2.72;;;;;;;;;;6253108;28;21471;-78
2023/08/14 07:32:37;;;;;;;7.72;3.08;;;;;;;;;;6241293;28;20533;-76
2023/08/14 07:35:38;;;;;;;6.73;3.03;;;;;;;;;;6259230;28;20554;-77
2023/08/14 07:38:40;;;;;;;5.07;2.53;;;;;;;;;;6240057;28;20552;-78
2023/08/14 07:41:42;;;;;;;10.23;3.28;;;;;;;;;;6258172;28;20045;-77
2023/08/14 07:44:43;;;;;;;7.72;3.10;;;;;;;;;;6259383;28;20045;-77
2023/08/14 07:47:45;;;;;;;5.93;3.30;;;;;;;;;;6258933;28;20037;-78
2023/08/14 07:50:53;;;;;;;6.43;2.78;;;;;;;;;;6258109;28;20059;-79
2023/08/14 07:53:55;;;;;;;5.95;2.38;;;;;;;;;;6259402;28;20068;-78
2023/08/14 07:56:57;;;;;;;6.03;2.83;;;;;;;;;;6260377;28;20075;-78
2023/08/14 07:59:58;;;;;;;4.80;2.80;;;;;;;;;;6241809;28;20073;-78
2023/08/14 08:03:00;;;;;;;5.13;2.60;;;;;;;;;;6240778;28;20041;-78
2023/08/14 08:06:02;;;;;;;7.22;3.00;;;;;;;;;;6244814;28;20049;-79
2023/08/14 08:09:04;;;;;;;4.67;2.63;;;;;;;;;;6290314;28;20045;-79
2023/08/14 08:12:06;;;;;;;5.93;2.80;;;;;;;;;;6257589;28;20049;-79
2023/08/14 08:15:08;;;;;;;5.28;2.90;;;;;;;;;;6255307;28;20126;-79
2023/08/14 08:18:10;;;;;;;5.87;2.60;;;;;;;;;;6291232;28;20065;-79
2023/08/14 08:21:11;;;;;;;5.63;2.70;;;;;;;;;;6266665;28;20449;-78
2023/08/14 08:24:14;;;;;;;3.47;2.47;;;;;;;;;;6261846;28;20079;-78
2023/08/14 08:27:15;;;;;;;5.60;2.53;;;;;;;;;;6232875;28;20396;-77
2023/08/14 08:30:17;;;;;;;4.40;2.55;;;;;;;;;;6256887;28;20699;-78
2023/08/14 08:33:19;;;;;;;5.43;2.47;;;;;;;;;;6256545;28;20045;-79
2023/08/14 08:36:28;;;;;;;3.97;2.20;;;;;;;;;;6236698;28;20047;-78
2023/08/14 08:39:29;;;;;;;3.80;2.47;;;;;;;;;;6259980;28;20055;-79
2023/08/14 08:42:31;;;;;;;5.43;2.40;;;;;;;;;;6241258;28;20118;-79
2023/08/14 08:45:36;;;;;;;3.57;2.10;;;;;;;;;;6257023;28;20045;-81
2023/08/14 08:48:41;;;;;;;6.90;2.35;;;;;;;;;;6264850;28;20449;-78
2023/08/14 08:51:44;;;;;;;5.40;2.10;;;;;;;;;;6260790;28;20053;-79
2023/08/14 08:54:49;;;;;;;4.45;2.13;;;;;;;;;;6277843;28;20045;-77
2023/08/14 08:57:53;;;;;;;4.53;2.55;;;;;;;;;;6278300;28;20041;-79
2023/08/14 09:00:55;;;;;;;4.07;2.22;;;;;;;;;;6253068;28;20090;-79
2023/08/14 09:03:57;;;;;;;4.43;2.30;;;;;;;;;;6263711;28;20045;-78
2023/08/14 09:06:59;;;;;;;3.95;2.47;;;;;;;;;;6261962;28;20715;-78
2023/08/14 09:10:01;;;;;;;3.90;2.10;;;;;;;;;;6265867;28;20106;-76
2023/08/14 09:13:03;;;;;;;6.97;2.20;;;;;;;;;;6271392;28;20052;-82
2023/08/14 09:16:14;;;;;;;4.70;2.22;;;;;;;;;;6251311;28;20613;-80
2023/08/14 09:19:16;;;;;;;5.85;2.30;;;;;;;;;;6284341;28;20057;-81
2023/08/14 09:22:18;;;;;;;3.38;2.10;;;;;;;;;;6267532;28;20048;-79
2023/08/14 09:25:20;;;;;;;4.10;2.33;;;;;;;;;;6254809;28;20052;-80
2023/08/14 09:28:22;;;;;;;5.15;2.45;;;;;;;;;;6247625;28;20084;-80
2023/08/14 09:31:23;;;;;;;3.47;1.97;;;;;;;;;;6265330;28;20060;-83
2023/08/14 09:34:25;;;;;;;3.37;1.93;;;;;;;;;;6256214;28;20051;-81
2023/08/14 09:37:28;;;;;;;4.28;1.85;;;;;;;;;;6272368;28;20049;-80
2023/08/14 09:40:30;;;;;;;7.35;2.25;;;;;;;;;;6272412;28;20047;-81
2023/08/14 09:43:33;;;;;;;2.92;1.77;;;;;;;;;;6268772;28;20075;-81
2023/08/14 09:46:35;;;;;;;3.83;2.05;;;;;;;;;;6278877;28;20544;-81
2023/08/14 09:49:39;;;;;;;4.65;2.20;;;;;;;;;;6262416;28;20593;-81
2023/08/14 09:52:42;;;;;;;2.67;1.92;;;;;;;;;;6269175;28;20446;-82
2023/08/14 09:55:44;;;;;;;4.50;2.10;;;;;;;;;;6267969;28;20049;-79
2023/08/14 09:58:47;;;;;;;5.93;2.07;;;;;;;;;;6281974;28;20155;-80
2023/08/14 10:01:49;;;;;;;6.03;2.20;;;;;;;;;;6252112;28;20139;-80
2023/08/14 10:04:52;;;;;;;4.65;2.00;;;;;;;;;;6268205;28;20125;-80
2023/08/14 10:07:54;;;;;;;8.15;4.47;;;;;;;;;;6270025;28;20048;-81
2023/08/14 10:10:57;;;;;;;4.43;2.40;;;;;;;;;;6270984;28;20048;-79
2023/08/14 10:14:21;;;;;;;3.17;1.85;;;;;;;;;;6269521;28;20079;-80
2023/08/14 10:17:30;;;;;;;6.72;2.42;;;;;;;;;;6269055;28;20049;-80
2023/08/14 10:20:34;;;;;;;4.72;2.10;;;;;;;;;;6244659;28;20064;-79
2023/08/14 10:23:36;;;;;;;5.50;2.20;;;;;;;;;;6267466;28;20141;-78
2023/08/14 10:26:38;;;;;;;5.10;2.30;;;;;;;;;;6295371;28;20048;-79
2023/08/14 10:29:41;;;;;;;3.78;2.30;;;;;;;;;;6276911;28;20251;-80
2023/08/14 10:32:43;;;;;;;;;;;;;;;;;;6281291;28;20150;-79
2023/08/14 10:35:50;;;;;;;5.28;2.10;;;;;;;;;;6273857;28;19951;-80
2023/08/14 10:38:52;;;;;;;4.60;2.38;;;;;;;;;;6299843;28;20048;-81
2023/08/14 10:42:02;;;;;;;3.03;2.17;;;;;;;;;;6273907;28;20049;-80
2023/08/14 10:45:06;;;;;;;4.30;2.30;;;;;;;;;;6267270;28;20065;-80
2023/08/14 10:48:09;;;;;;;6.03;2.80;;;;;;;;;;6274419;28;20037;-80
2023/08/14 10:51:16;;;;;;;4.45;2.60;;;;;;;;;;6264855;28;20053;-79
2023/08/14 10:54:18;;;;;;;4.25;2.38;;;;;;;;;;6258731;28;20048;-81
2023/08/14 10:57:27;;;;;;;4.17;2.70;;;;;;;;;;6270296;28;20040;-80
2023/08/14 11:00:29;;;;;;;6.57;2.50;;;;;;;;;;6275723;28;20044;-80
2023/08/14 11:03:55;;;;;;;6.25;2.70;;;;;;;;;;6281789;28;20051;-80
2023/08/14 11:06:56;;;;;;;5.22;2.65;;;;;;;;;;6252706;28;20041;-81
2023/08/14 11:09:58;;;;;;;6.47;2.78;;;;;;;;;;6272014;28;20049;-82
2023/08/14 11:13:09;;;;;;;7.15;2.65;;;;;;;;;;6250955;28;20045;-82
2023/08/14 11:16:11;;;;;;;4.55;2.70;;;;;;;;;;6253189;28;20065;-80
2023/08/14 11:19:13;;;;;;;5.53;2.50;;;;;;;;;;6259616;28;20067;-81
2023/08/14 11:22:14;;;;;;;4.68;2.58;;;;;;;;;;6269628;28;20071;-83
2023/08/14 11:25:17;;;;;;;5.35;2.63;;;;;;;;;;6251601;28;20075;-82
2023/08/14 11:28:18;;;;;;;6.57;2.53;;;;;;;;;;6250846;28;20126;-81
2023/08/14 11:31:20;;;;;;;5.33;2.53;;;;;;;;;;6261082;28;20719;-80
2023/08/14 11:34:37;;;;;;;4.65;2.38;;;;;;;;;;6259455;28;20772;-79
2023/08/14 11:37:39;;;;;;;4.45;2.80;;;;;;;;;;6240161;28;20045;-79
2023/08/14 11:40:41;;;;;;;5.35;2.70;;;;;;;;;;6268302;28;20057;-80
2023/08/14 11:43:45;;;;;;;7.25;2.83;;;;;;;;;;6242279;28;20044;-77
2023/08/14 11:46:50;;;;;;;4.95;2.40;;;;;;;;;;6274052;28;20040;-81
2023/08/14 11:49:54;;;;;;;3.72;2.83;;;;;;;;;;6260907;28;20040;-79
2023/08/14 11:52:57;;;;;;;4.97;2.67;;;;;;;;;;6257778;28;20048;-80
2023/08/14 11:55:58;;;;;;;6.97;3.28;;;;;;;;;;6238845;28;20482;-79
2023/08/14 11:59:01;;;;;;;6.05;2.67;;;;;;;;;;6240572;28;20495;-79
2023/08/14 12:02:10;;;;;;;5.40;2.88;;;;;;;;;;6258763;28;20419;-78
2023/08/14 12:05:12;;;;;;;6.20;2.70;;;;;;;;;;6243294;28;20048;-79
2023/08/14 12:08:14;;;;;;;6.00;2.50;;;;;;;;;;6261098;28;20499;-79
2023/08/14 12:11:17;;;;;;;8.05;2.70;;;;;;;;;;6240963;28;20519;-78
2023/08/14 12:14:18;;;;;;;6.13;2.80;;;;;;;;;;6258066;28;20504;-78
2023/08/14 12:17:20;;;;;;;6.30;2.60;;;;;;;;;;6260490;28;20098;-78
2023/08/14 12:20:22;;;;;;;5.45;2.70;;;;;;;;;;6261906;28;20454;-80
2023/08/14 12:23:24;;;;;;;5.33;2.80;;;;;;;;;;6273705;28;20060;-80
2023/08/14 12:26:26;;;;;;;4.95;2.65;;;;;;;;;;6278999;28;20088;-80
2023/08/14 12:29:28;;;;;;;6.20;2.77;;;;;;;;;;6273750;28;20051;-78
2023/08/14 12:32:30;;;;;;;4.40;2.75;;;;;;;;;;6273237;28;20510;-82
2023/08/14 12:35:31;;;;;;;5.70;3.10;;;;;;;;;;6254056;28;20117;-82
2023/08/14 12:38:37;;;;;;;5.15;2.80;;;;;;;;;;6270157;28;20060;-82
2023/08/14 12:41:38;;;;;;;5.05;3.00;;;;;;;;;;6255462;28;20048;-83
2023/08/14 12:44:40;;;;;;;5.20;2.65;;;;;;;;;;6270425;28;20053;-84
2023/08/14 12:47:42;;;;;;;4.53;2.55;;;;;;;;;;6250242;28;20060;-84
2023/08/14 12:50:44;;;;;;;5.28;2.90;;;;;;;;;;6286315;28;20053;-83
2023/08/14 12:53:46;;;;;;;5.43;2.75;;;;;;;;;;6260284;28;20186;-82
2023/08/14 12:56:47;;;;;;;5.90;2.78;;;;;;;;;;6267127;28;20140;-84
2023/08/14 12:59:49;;;;;;;4.68;2.55;;;;;;;;;;6294242;28;20044;-83
2023/08/14 13:02:51;;;;;;;4.53;2.80;;;;;;;;;;6296762;28;20053;-83
2023/08/14 13:05:54;;;;;;;4.85;2.72;;;;;;;;;;6281099;28;20040;-83
2023/08/14 13:08:55;;;;;;;;;;;;;;;;;;6290228;28;20098;-81
2023/08/14 13:11:57;;;;;;;4.30;2.63;;;;;;;;;;6290451;28;19947;-80
2023/08/14 13:14:59;;;;;;;5.45;2.65;;;;;;;;;;6306219;28;20040;-79
2023/08/14 13:18:01;;;;;;;4.25;2.75;;;;;;;;;;6276174;28;20044;-81
2023/08/14 13:21:03;;;;;;;6.35;3.17;;;;;;;;;;6293294;28;20048;-80
2023/08/14 13:24:06;;;;;;;5.35;2.85;;;;;;;;;;6275145;28;20044;-81
2023/08/14 13:27:07;;;;;;;6.25;2.47;;;;;;;;;;6285865;28;20048;-79
2023/08/14 13:30:10;;;;;;;7.15;2.80;;;;;;;;;;6289360;28;20044;-79
2023/08/14 13:33:21;;;;;;;4.20;2.88;;;;;;;;;;6269515;28;20097;-80
2023/08/14 13:36:22;;;;;;;4.03;3.08;;;;;;;;;;6271658;28;20044;-81
2023/08/14 13:39:24;;;;;;;4.37;2.80;;;;;;;;;;6287098;28;20503;-79
2023/08/14 13:42:26;;;;;;;4.35;2.88;;;;;;;;;;6290753;28;20365;-80
2023/08/14 13:45:29;;;;;;;4.40;2.80;;;;;;;;;;6280038;28;20051;-79
2023/08/14 13:48:31;;;;;;;4.60;2.97;;;;;;;;;;6295744;28;20037;-82
2023/08/14 13:51:34;;;;;;;6.13;2.60;;;;;;;;;;6293179;28;20044;-81
2023/08/14 13:54:36;;;;;;;4.78;3.10;;;;;;;;;;6297095;28;20119;-82
2023/08/14 13:57:38;;;;;;;5.60;3.28;;;;;;;;;;6297898;28;20048;-80
2023/08/14 14:00:41;;;;;;;7.13;3.25;;;;;;;;;;6309891;28;20048;-82
2023/08/14 14:03:43;;;;;;;5.38;3.30;;;;;;;;;;6291670;28;20066;-84
2023/08/14 14:06:45;;;;;;;4.17;3.30;;;;;;;;;;6303006;28;20577;-84
2023/08/14 14:09:50;;;;;;;3.33;2.97;;;;;;;;;;6308345;28;20108;-84
2023/08/14 14:12:52;;;;;;;6.95;2.90;;;;;;;;;;6286336;28;20495;-80
2023/08/14 14:15:56;;;;;;;7.28;3.15;;;;;;;;;;6299874;28;20055;-83
2023/08/14 14:18:58;;;;;;;7.40;3.30;;;;;;;;;;6297686;28;20527;-81
2023/08/14 14:22:00;;;;;;;4.63;3.08;;;;;;;;;;6287491;28;20071;-81
2023/08/14 14:25:03;;;;;;;8.43;3.05;;;;;;;;;;6284048;28;20507;-84
2023/08/14 14:28:05;;;;;;;5.28;2.97;;;;;;;;;;6266931;28;20048;-80
2023/08/14 14:31:07;;;;;;;5.50;2.90;;;;;;;;;;6289933;28;20036;-82
2023/08/14 14:34:08;;;;;;;4.28;3.22;;;;;;;;;;6291091;28;20835;-82
2023/08/14 14:37:10;;;;;;;3.38;2.97;;;;;;;;;;6287089;28;20041;-84
2023/08/14 14:40:12;;;;;;;5.70;3.10;;;;;;;;;;6279434;28;20040;-82
2023/08/14 14:43:13;;;;;;;6.47;3.53;;;;;;;;;;6293691;28;20176;-81
2023/08/14 14:46:15;;;;;;;6.15;3.15;;;;;;;;;;6274208;28;20446;-81
2023/08/14 14:49:17;;;;;;;6.63;3.35;;;;;;;;;;6290167;28;20040;-83
2023/08/14 14:52:19;;;;;;;3.97;2.95;;;;;;;;;;6310377;28;20048;-84
2023/08/14 14:55:20;;;;;;;5.88;3.10;;;;;;;;;;6275860;28;20048;-80
2023/08/14 14:58:22;;;;;;;4.03;2.80;;;;;;;;;;6283457;28;20048;-78
2023/08/14 15:01:24;;;;;;;3.78;2.90;;;;;;;;;;6290432;28;20439;-78
2023/08/14 15:04:25;;;;;;;3.83;3.05;;;;;;;;;;6275148;28;20471;-81
2023/08/14 15:07:31;;;;;;;4.38;2.90;;;;;;;;;;6291211;28;20510;-79
2023/08/14 15:10:34;;;;;;;4.00;2.63;;;;;;;;;;6285569;28;20045;-76
2023/08/14 15:13:36;;;;;;;6.68;3.10;;;;;;;;;;6271808;28;20295;-78
2023/08/14 15:16:38;;;;;;;3.30;2.83;;;;;;;;;;6288623;28;20042;-79
2023/08/14 15:19:40;;;;;;;4.43;2.67;;;;;;;;;;6285583;28;20071;-81
2023/08/14 15:22:43;;;;;;;4.38;2.70;;;;;;;;;;6287579;28;20045;-80
2023/08/14 15:25:45;;;;;;;4.38;2.72;;;;;;;;;;6276168;28;20063;-81
2023/08/14 15:28:46;;;;;;;4.60;2.57;;;;;;;;;;6299902;28;20097;-77
2023/08/14 15:31:48;;;;;;;3.58;2.70;;;;;;;;;;6285544;28;20455;-79
2023/08/14 15:34:50;;;;;;;4.80;2.93;;;;;;;;;;6288748;28;20049;-80
2023/08/14 15:37:52;;;;;;;2.97;2.67;;;;;;;;;;6285408;28;20460;-79
2023/08/14 15:40:54;;;;;;;3.88;2.92;;;;;;;;;;6274970;28;20032;-80
2023/08/14 15:43:56;;;;;;;6.35;2.85;;;;;;;;;;6277737;28;20079;-79
2023/08/14 15:46:58;;;;;;;5.97;2.67;;;;;;;;;;6274811;28;20047;-81
2023/08/14 15:49:59;;;;;;;5.30;2.70;;;;;;;;;;6286788;28;20052;-79
2023/08/14 15:53:01;;;;;;;5.87;2.83;;;;;;;;;;6265642;28;20037;-78
2023/08/14 15:56:03;;;;;;;2.93;2.67;;;;;;;;;;6283286;28;20045;-77
2023/08/14 15:59:05;;;;;;;4.22;2.70;;;;;;;;;;6300227;28;20446;-77
2023/08/14 16:02:09;;;;;;;3.73;2.70;;;;;;;;;;6283323;28;20331;-79
2023/08/14 16:05:11;;;;;;;3.42;2.78;;;;;;;;;;6284723;28;22531;-80
2023/08/14 16:08:13;;;;;;;4.68;3.00;;;;;;;;;;6284029;28;20082;-77
2023/08/14 16:11:15;;;;;;;4.80;2.87;;;;;;;;;;6270615;28;20052;-78
2023/08/14 16:14:17;;;;;;;2.97;2.50;;;;;;;;;;6258999;28;20775;-79
2023/08/14 16:17:18;;;;;;;2.93;2.50;;;;;;;;;;6253428;28;20045;-78
2023/08/14 16:20:20;;;;;;;4.22;2.40;;;;;;;;;;6264815;28;20442;-78
2023/08/14 16:23:22;;;;;;;6.50;2.67;;;;;;;;;;6252809;28;20515;-77
2023/08/14 16:26:24;;;;;;;4.90;2.67;;;;;;;;;;6256138;28;20045;-78
2023/08/14 16:29:26;;;;;;;4.80;2.80;;;;;;;;;;6266408;28;20049;-79
2023/08/14 16:32:28;;;;;;;4.15;2.70;;;;;;;;;;6268988;28;20472;-78
2023/08/14 16:35:30;;;;;;;4.75;2.78;;;;;;;;;;6283542;28;20029;-80
2023/08/14 16:38:32;;;;;;;3.78;2.63;;;;;;;;;;6282253;28;20051;-79
2023/08/14 16:41:34;;;;;;;4.57;2.60;;;;;;;;;;6267040;28;20419;-82
2023/08/14 16:44:35;;;;;;;3.75;2.55;;;;;;;;;;6282017;28;20044;-79
2023/08/14 16:47:37;;;;;;;4.72;2.70;;;;;;;;;;6283581;28;20041;-78
2023/08/14 16:50:39;;;;;;;6.70;3.00;;;;;;;;;;6282529;28;20075;-78
2023/08/14 16:53:41;;;;;;;3.13;2.72;;;;;;;;;;6277559;28;20059;-78
2023/08/14 16:56:43;;;;;;;2.85;2.50;;;;;;;;;;6281925;28;20060;-79
2023/08/14 16:59:44;;;;;;;4.80;2.97;;;;;;;;;;6255324;28;20448;-79
2023/08/14 17:02:46;;;;;;;3.70;2.53;;;;;;;;;;6257541;28;20060;-78
2023/08/14 17:05:57;;;;;;;4.30;2.40;;;;;;;;;;6246793;28;20063;-78
2023/08/14 17:09:00;;;;;;;4.22;2.50;;;;;;;;;;6260637;28;20458;-78
2023/08/14 17:12:02;;;;;;;2.50;2.13;;;;;;;;;;6232567;28;20055;-79
2023/08/14 17:15:04;;;;;;;3.42;2.40;;;;;;;;;;6272699;28;20502;-79
2023/08/14 17:18:06;;;;;;;3.65;2.53;;;;;;;;;;6274087;28;20067;-80
2023/08/14 17:21:08;;;;;;;4.72;2.30;;;;;;;;;;6287633;28;20571;-79
2023/08/14 17:24:09;;;;;;;8.43;2.60;;;;;;;;;;6272257;28;20048;-80
2023/08/14 17:27:11;;;;;;;2.67;2.20;;;;;;;;;;6295791;28;20041;-80
2023/08/14 17:30:13;;;;;;;3.80;2.40;;;;;;;;;;6293544;28;20049;-80
2023/08/14 17:33:14;;;;;;;6.10;2.73;;;;;;;;;;6315425;28;20455;-81
2023/08/14 17:36:16;;;;;;;4.95;2.65;;;;;;;;;;6294727;28;20044;-80
2023/08/14 17:39:18;;;;;;;4.07;2.50;;;;;;;;;;6297863;28;20068;-78
2023/08/14 17:42:20;;;;;;;6.25;2.60;;;;;;;;;;6296027;28;20511;-79
2023/08/14 17:45:21;;;;;;;3.20;2.73;;;;;;;;;;6277574;28;21076;-80
2023/08/14 17:48:23;;;;;;;5.70;2.53;;;;;;;;;;6276146;28;20063;-81
2023/08/14 17:51:25;;;;;;;3.55;2.83;;;;;;;;;;6274616;28;20051;-81
2023/08/14 17:54:26;;;;;;;3.45;2.90;;;;;;;;;;6246234;28;20045;-80
2023/08/14 17:57:28;;;;;;;5.50;2.90;;;;;;;;;;6253372;28;20965;-83
2023/08/14 18:00:30;;;;;;;4.47;2.90;;;;;;;;;;6250793;28;20506;-81
2023/08/14 18:03:33;;;;;;;6.10;2.80;;;;;;;;;;6270849;28;20053;-79
2023/08/14 18:06:35;;;;;;;3.83;2.80;;;;;;;;;;6287635;28;20044;-80
2023/08/14 18:09:36;;;;;;;3.90;2.70;;;;;;;;;;6294242;28;20147;-79
2023/08/14 18:12:38;;;;;;;5.47;3.37;;;;;;;;;;6301679;28;20338;-79
2023/08/14 18:15:40;;;;;;;5.67;2.80;;;;;;;;;;6284317;28;20044;-79